Time,TemperatureF,DewpointF,PressureIn,WindDirection,WindDirectionDegrees,WindSpeedMPH,WindSpeedGustMPH,Humidity,HourlyPrecipIn,Conditions,Clouds,dailyrainin,SoftwareType,DateUTC
2013-06-20 00:02:00,71.8,16.4,24.35,SW,225,4.6,4.6,12,0.00,CLR,,0.00,WeatherDisplay:10.37,2013-06-20 06:02:00,
2013-06-20 00:07:00,71.8,16.4,24.35,SW,225,4.6,4.6,12,0.00,CLR,,0.00,WeatherDisplay:10.37,2013-06-20 06:07:00,
2013-06-20 00:12:00,74.1,23.5,24.35,West,270,5.8,5.8,15,0.00,CLR,,0.00,WeatherDisplay:10.37,2013-06-20 06:12:00,
2013-06-20 00:17:00,74.7,23.9,24.36,SW,225,3.5,3.5,15,0.00,CLR,,0.00,WeatherDisplay:10.37,2013-06-20 06:17:00,
2013-06-20 00:22:00,75.0,24.2,24.35,West,270,4.6,4.6,15,0.00,CLR,,0.00,WeatherDisplay:10.37,2013-06-20 06:22:00,
2013-06-20 00:28:00,73.6,23.0,24.35,West,270,6.9,6.9,15,0.00,CLR,,0.00,WeatherDisplay:10.37,2013-06-20 06:28:00,
2013-06-20 00:33:00,73.6,23.0,24.36,West,270,6.0,6.0,15,0.00,CLR,,0.00,WeatherDisplay:10.37,2013-06-20 06:33:00,
2013-06-20 00:38:00,72.3,16.8,24.36,West,270,5.8,5.8,12,0.00,CLR,,0.00,WeatherDisplay:10.37,2013-06-20 06:38:00,
2013-06-20 00:43:00,71.6,16.2,24.36,West,270,5.8,5.8,12,0.00,CLR,,0.00,WeatherDisplay:10.37,2013-06-20 06:43:00,
2013-06-20 00:48:00,71.1,17.7,24.35,West,270,5.8,5.8,13,0.00,CLR,,0.00,WeatherDisplay:10.37,2013-06-20 06:48:00,
2013-06-20 00:54:00,70.7,17.4,24.36,West,270,5.8,5.8,13,0.00,CLR,,0.00,WeatherDisplay:10.37,2013-06-20 06:54:00,
2013-06-20 00:59:00,70.3,17.1,24.36,WNW,292,5.8,5.8,13,0.00,CLR,,0.00,WeatherDisplay:10.37,2013-06-20 06:59:00,
2013-06-20 01:04:00,70.3,17.1,24.36,NW,315,8.1,8.1,13,0.00,CLR,,0.00,WeatherDisplay:10.37,2013-06-20 07:04:00,
2013-06-20 01:09:00,69.3,18.0,24.36,NW,315,5.8,5.8,14,0.00,CLR,,0.00,WeatherDisplay:10.37,2013-06-20 07:09:00,
2013-06-20 01:14:00,68.9,17.7,24.36,NW,315,5.8,5.8,14,0.00,CLR,,0.00,WeatherDisplay:10.37,2013-06-20 07:14:00,
2013-06-20 01:19:00,69.4,18.1,24.36,NW,315,5.8,5.8,14,0.00,CLR,,0.00,WeatherDisplay:10.37,2013-06-20 07:19:00,
2013-06-20 01:25:00,69.6,18.3,24.36,NW,315,6.9,6.9,14,0.00,CLR,,0.00,WeatherDisplay:10.37,2013-06-20 07:25:00,
2013-06-20 01:30:00,69.6,18.3,24.36,North,0,4.6,4.6,14,0.00,CLR,,0.00,WeatherDisplay:10.37,2013-06-20 07:30:00,
2013-06-20 01:35:00,70.3,17.1,24.36,NW,315,5.8,5.8,13,0.00,CLR,,0.00,WeatherDisplay:10.37,2013-06-20 07:35:00,
2013-06-20 01:40:00,70.3,17.1,24.36,NW,315,4.6,4.6,13,0.00,CLR,,0.00,WeatherDisplay:10.37,2013-06-20 07:40:00,
2013-06-20 01:45:00,70.7,17.4,24.36,NW,315,5.8,5.8,13,0.00,CLR,,0.00,WeatherDisplay:10.37,2013-06-20 07:45:00,
2013-06-20 01:51:00,70.5,17.2,24.36,NW,315,3.5,3.5,13,0.00,CLR,,0.00,WeatherDisplay:10.37,2013-06-20 07:51:00,
2013-06-20 01:56:00,71.2,17.8,24.36,North,0,5.8,5.8,13,0.00,CLR,,0.00,WeatherDisplay:10.37,2013-06-20 07:56:00,
2013-06-20 02:01:00,71.1,17.7,24.36,NW,315,3.5,3.5,13,0.00,CLR,,0.00,WeatherDisplay:10.37,2013-06-20 08:01:00,
2013-06-20 02:06:00,71.1,17.7,24.36,NW,315,3.5,3.5,13,0.00,CLR,,0.00,WeatherDisplay:10.37,2013-06-20 08:06:00,
2013-06-20 02:11:00,71.2,17.8,24.36,North,0,4.6,4.6,13,0.00,CLR,,0.00,WeatherDisplay:10.37,2013-06-20 08:11:00,
2013-06-20 02:17:00,70.3,17.1,24.36,North,0,3.5,3.5,13,0.00,CLR,,0.00,WeatherDisplay:10.37,2013-06-20 08:17:00,
2013-06-20 02:22:00,70.2,17.0,24.36,NW,315,3.5,3.5,13,0.00,CLR,,0.00,WeatherDisplay:10.37,2013-06-20 08:22:00,
2013-06-20 02:27:00,70.0,16.8,24.36,North,0,3.5,3.5,13,0.00,CLR,,0.00,WeatherDisplay:10.37,2013-06-20 08:27:00,
2013-06-20 02:32:00,70.3,17.1,24.37,NNE,22,3.5,3.5,13,0.00,CLR,,0.00,WeatherDisplay:10.37,2013-06-20 08:32:00,
2013-06-20 02:38:00,70.5,17.2,24.36,NW,315,5.8,5.8,13,0.00,CLR,,0.00,WeatherDisplay:10.37,2013-06-20 08:38:00,
2013-06-20 02:43:00,70.3,17.1,24.36,NE,45,5.8,5.8,13,0.00,CLR,,0.00,WeatherDisplay:10.37,2013-06-20 08:43:00,
2013-06-20 02:48:00,70.3,17.1,24.36,North,0,3.5,3.5,13,0.00,CLR,,0.00,WeatherDisplay:10.37,2013-06-20 08:48:00,
2013-06-20 02:53:00,70.2,17.0,24.37,NW,315,3.5,3.5,13,0.00,CLR,,0.00,WeatherDisplay:10.37,2013-06-20 08:53:00,
2013-06-20 02:59:00,69.8,16.7,24.37,North,0,3.5,3.5,13,0.00,CLR,,0.00,WeatherDisplay:10.37,2013-06-20 08:59:00,
2013-06-20 03:04:00,70.0,16.8,24.37,NE,45,3.5,3.5,13,0.00,CLR,,0.00,WeatherDisplay:10.37,2013-06-20 09:04:00,
2013-06-20 03:09:00,70.0,16.8,24.37,East,90,6.9,6.9,13,0.00,CLR,,0.00,WeatherDisplay:10.37,2013-06-20 09:09:00,
2013-06-20 03:14:00,70.3,17.1,24.37,North,0,3.5,3.5,13,0.00,CLR,,0.00,WeatherDisplay:10.37,2013-06-20 09:14:00,
2013-06-20 03:19:00,69.6,18.3,24.37,North,0,2.3,2.3,14,0.00,CLR,,0.00,WeatherDisplay:10.37,2013-06-20 09:19:00,
2013-06-20 03:24:00,69.6,18.3,24.37,North,0,4.6,4.6,14,0.00,CLR,,0.00,WeatherDisplay:10.37,2013-06-20 09:24:00,
2013-06-20 03:29:00,69.4,19.7,24.37,NW,315,5.8,5.8,15,0.00,CLR,,0.00,WeatherDisplay:10.37,2013-06-20 09:29:00,
2013-06-20 03:35:00,68.7,17.5,24.37,NW,315,8.1,8.1,14,0.00,CLR,,0.00,WeatherDisplay:10.37,2013-06-20 09:35:00,
2013-06-20 03:40:00,68.4,17.3,24.36,North,0,5.8,5.8,14,0.00,CLR,,0.00,WeatherDisplay:10.37,2013-06-20 09:40:00,
2013-06-20 03:45:00,68.9,17.7,24.36,NW,315,5.8,5.8,14,0.00,CLR,,0.00,WeatherDisplay:10.37,2013-06-20 09:45:00,
2013-06-20 03:50:00,67.3,18.0,24.36,NW,315,8.1,8.1,15,0.00,CLR,,0.00,WeatherDisplay:10.37,2013-06-20 09:50:00,
2013-06-20 03:55:00,66.9,19.2,24.36,NW,315,6.0,6.0,16,0.00,CLR,,0.00,WeatherDisplay:10.37,2013-06-20 09:55:00,
2013-06-20 04:00:00,67.1,19.4,24.36,North,0,5.8,5.8,16,0.00,CLR,,0.00,WeatherDisplay:10.37,2013-06-20 10:00:00,
2013-06-20 04:06:00,67.1,19.4,24.36,North,0,3.5,3.5,16,0.00,CLR,,0.00,WeatherDisplay:10.37,2013-06-20 10:06:00,
2013-06-20 04:11:00,67.3,30.2,24.36,NNW,338,4.6,4.6,25,0.00,CLR,,0.00,WeatherDisplay:10.37,2013-06-20 10:11:00,
2013-06-20 04:16:00,67.6,34.2,24.37,NW,315,4.6,4.6,29,0.00,CLR,,0.00,WeatherDisplay:10.37,2013-06-20 10:16:00,
2013-06-20 04:21:00,66.4,24.1,24.37,West,270,5.8,5.8,20,0.00,CLR,,0.00,WeatherDisplay:10.37,2013-06-20 10:21:00,
2013-06-20 04:26:00,64.8,28.1,24.37,NW,315,5.8,5.8,25,0.00,CLR,,0.00,WeatherDisplay:10.37,2013-06-20 10:26:00,
2013-06-20 04:31:00,63.9,32.6,24.37,West,270,4.6,4.6,31,0.00,CLR,,0.00,WeatherDisplay:10.37,2013-06-20 10:31:00,
2013-06-20 04:36:00,63.3,32.9,24.38,NW,315,3.5,3.5,32,0.00,CLR,,0.00,WeatherDisplay:10.37,2013-06-20 10:36:00,
2013-06-20 04:41:00,63.0,34.9,24.38,NW,315,3.5,3.5,35,0.00,CLR,,0.00,WeatherDisplay:10.37,2013-06-20 10:41:00,
2013-06-20 04:46:00,63.1,39.7,24.38,North,0,6.0,6.0,42,0.00,CLR,,0.00,WeatherDisplay:10.37,2013-06-20 10:46:00,
2013-06-20 04:51:00,64.4,42.6,24.38,North,0,5.8,5.8,45,0.00,CLR,,0.00,WeatherDisplay:10.37,2013-06-20 10:51:00,
2013-06-20 04:57:00,65.8,43.9,24.37,NW,315,6.9,6.9,45,0.00,CLR,,0.00,WeatherDisplay:10.37,2013-06-20 10:57:00,
2013-06-20 05:02:00,65.8,41.5,24.37,North,0,4.6,4.6,41,0.00,CLR,,0.00,WeatherDisplay:10.37,2013-06-20 11:02:00,
2013-06-20 05:07:00,65.3,42.2,24.38,NW,315,4.6,4.6,43,0.00,CLR,,0.00,WeatherDisplay:10.37,2013-06-20 11:07:00,
2013-06-20 05:12:00,64.8,42.9,24.38,North,0,4.6,4.6,45,0.00,CLR,,0.00,WeatherDisplay:10.37,2013-06-20 11:12:00,
2013-06-20 05:18:00,64.9,43.1,24.38,North,0,4.6,4.6,45,0.00,CLR,,0.00,WeatherDisplay:10.37,2013-06-20 11:18:00,
2013-06-20 05:23:00,64.8,42.9,24.38,North,0,4.6,4.6,45,0.00,CLR,,0.00,WeatherDisplay:10.37,2013-06-20 11:23:00,
2013-06-20 05:28:00,64.8,42.9,24.39,North,0,4.6,4.6,45,0.00,CLR,,0.00,WeatherDisplay:10.37,2013-06-20 11:28:00,
2013-06-20 05:33:00,65.3,42.8,24.38,North,0,5.8,5.8,44,0.00,CLR,,0.00,WeatherDisplay:10.37,2013-06-20 11:33:00,
2013-06-20 05:38:00,65.3,41.0,24.39,NW,315,4.6,4.6,41,0.00,CLR,,0.00,WeatherDisplay:10.37,2013-06-20 11:38:00,
2013-06-20 05:44:00,65.1,38.2,24.39,North,0,3.5,3.5,37,0.00,CLR,,0.00,WeatherDisplay:10.37,2013-06-20 11:44:00,
2013-06-20 05:49:00,64.8,37.2,24.39,NE,45,3.5,3.5,36,0.00,CLR,,0.00,WeatherDisplay:10.37,2013-06-20 11:49:00,
2013-06-20 05:54:00,64.6,37.0,24.39,NW,315,3.5,3.5,36,0.00,CLR,,0.00,WeatherDisplay:10.37,2013-06-20 11:54:00,
2013-06-20 05:59:00,64.8,37.2,24.40,North,0,3.5,3.5,36,0.00,CLR,,0.00,WeatherDisplay:10.37,2013-06-20 11:59:00,
2013-06-20 06:04:00,64.8,37.2,24.40,North,0,3.5,3.5,36,0.00,CLR,,0.00,WeatherDisplay:10.37,2013-06-20 12:04:00,
2013-06-20 06:09:00,64.9,38.0,24.40,North,0,3.5,3.5,37,0.00,CLR,,0.00,WeatherDisplay:10.37,2013-06-20 12:09:00,
2013-06-20 06:15:00,65.7,42.5,24.40,NE,45,4.5,4.5,43,0.00,CLR,,0.00,WeatherDisplay:10.37,2013-06-20 12:15:00,
2013-06-20 06:20:00,66.4,42.0,24.40,North,0,3.5,3.5,41,0.00,CLR,,0.00,WeatherDisplay:10.37,2013-06-20 12:20:00,
2013-06-20 06:25:00,67.3,42.1,24.40,South,180,1.1,1.6,40,0.00,CLR,,0.00,WeatherDisplay:10.37,2013-06-20 12:25:00,
2013-06-20 06:30:00,68.4,41.1,24.41,NW,315,1.1,1.1,37,0.00,CLR,,0.00,WeatherDisplay:10.37,2013-06-20 12:30:00,
2013-06-20 06:35:00,69.4,42.7,24.41,SW,225,1.1,1.1,38,0.00,CLR,,0.00,WeatherDisplay:10.37,2013-06-20 12:35:00,
2013-06-20 06:40:00,69.6,41.5,24.41,West,270,3.5,3.5,36,0.00,CLR,,0.00,WeatherDisplay:10.37,2013-06-20 12:40:00,
2013-06-20 06:46:00,67.6,39.7,24.42,West,270,3.5,3.5,36,0.00,CLR,,0.00,WeatherDisplay:10.37,2013-06-20 12:46:00,
2013-06-20 06:51:00,68.4,38.9,24.42,West,270,3.5,3.5,34,0.00,CLR,,0.00,WeatherDisplay:10.37,2013-06-20 12:51:00,
2013-06-20 06:56:00,68.0,38.6,24.42,West,270,4.6,4.6,34,0.00,CLR,,0.00,WeatherDisplay:10.37,2013-06-20 12:56:00,
2013-06-20 07:01:00,67.6,39.7,24.42,West,270,3.5,3.5,36,0.00,CLR,,0.00,WeatherDisplay:10.37,2013-06-20 13:01:00,
2013-06-20 07:06:00,67.5,38.1,24.42,West,270,5.8,5.8,34,0.00,CLR,,0.00,WeatherDisplay:10.37,2013-06-20 13:06:00,
2013-06-20 07:11:00,67.3,37.2,24.43,NW,315,4.6,4.6,33,0.00,CLR,,0.00,WeatherDisplay:10.37,2013-06-20 13:11:00,
2013-06-20 07:17:00,68.4,30.1,24.43,West,270,5.8,5.8,24,0.00,CLR,,0.00,WeatherDisplay:10.37,2013-06-20 13:17:00,
2013-06-20 07:22:00,69.1,27.5,24.43,West,270,3.5,3.5,21,0.00,CLR,,0.00,WeatherDisplay:10.37,2013-06-20 13:22:00,
2013-06-20 07:27:00,70.0,23.1,24.44,West,270,5.8,5.8,17,0.00,CLR,,0.00,WeatherDisplay:10.37,2013-06-20 13:27:00,
2013-06-20 07:32:00,70.7,23.7,24.43,NW,315,4.6,4.6,17,0.00,CLR,,0.00,WeatherDisplay:10.37,2013-06-20 13:32:00,
2013-06-20 07:37:00,71.8,26.0,24.44,West,270,4.6,4.6,18,0.00,CLR,,0.00,WeatherDisplay:10.37,2013-06-20 13:37:00,
2013-06-20 07:43:00,72.1,31.2,24.44,West,270,3.5,3.5,22,0.00,CLR,,0.00,WeatherDisplay:10.37,2013-06-20 13:43:00,
2013-06-20 07:48:00,73.4,37.4,24.44,NW,315,3.5,3.5,27,0.00,CLR,,0.00,WeatherDisplay:10.37,2013-06-20 13:48:00,
2013-06-20 07:53:00,75.0,40.6,24.44,NW,315,3.5,3.5,29,0.00,CLR,,0.00,WeatherDisplay:10.37,2013-06-20 13:53:00,
2013-06-20 07:59:00,77.4,42.6,24.44,NW,315,2.3,2.3,29,0.00,CLR,,0.00,WeatherDisplay:10.37,2013-06-20 13:59:00,
2013-06-20 08:04:00,78.3,45.1,24.44,West,270,2.3,2.3,31,0.00,CLR,,0.00,WeatherDisplay:10.37,2013-06-20 14:04:00,
2013-06-20 08:09:00,82.2,44.9,24.44,NW,315,2.3,0.0,27,0.00,CLR,,0.00,WeatherDisplay:10.37,2013-06-20 14:09:00,
2013-06-20 08:14:00,83.8,46.3,24.44,NW,315,2.3,2.3,27,0.00,CLR,,0.00,WeatherDisplay:10.37,2013-06-20 14:14:00,
2013-06-20 08:19:00,83.7,45.1,24.44,West,270,2.3,2.3,26,0.00,CLR,,0.00,WeatherDisplay:10.37,2013-06-20 14:19:00,
2013-06-20 08:24:00,85.3,45.5,24.44,SW,225,1.1,0.0,25,0.00,CLR,,0.00,WeatherDisplay:10.37,2013-06-20 14:24:00,
2013-06-20 08:30:00,85.3,44.4,24.44,SW,225,1.1,0.0,24,0.00,CLR,,0.00,WeatherDisplay:10.37,2013-06-20 14:30:00,
2013-06-20 08:35:00,86.9,39.7,24.44,North,0,2.3,2.3,19,0.00,CLR,,0.00,WeatherDisplay:10.37,2013-06-20 14:35:00,
2013-06-20 08:40:00,86.9,38.3,24.44,SE,135,2.3,2.3,18,0.00,CLR,,0.00,WeatherDisplay:10.37,2013-06-20 14:40:00,
2013-06-20 08:45:00,85.8,37.4,24.45,East,90,3.5,3.5,18,0.00,CLR,,0.00,WeatherDisplay:10.37,2013-06-20 14:45:00,
2013-06-20 08:50:00,84.9,36.7,24.45,SE,135,1.1,1.6,18,0.00,CLR,,0.00,WeatherDisplay:10.37,2013-06-20 14:50:00,
2013-06-20 08:56:00,84.6,31.8,24.44,East,90,4.5,4.5,15,0.00,CLR,,0.00,WeatherDisplay:10.37,2013-06-20 14:56:00,
2013-06-20 09:01:00,84.0,31.4,24.44,East,90,3.5,3.5,15,0.00,CLR,,0.00,WeatherDisplay:10.37,2013-06-20 15:01:00,
2013-06-20 09:06:00,83.8,31.2,24.44,East,90,5.8,5.8,15,0.00,CLR,,0.00,WeatherDisplay:10.37,2013-06-20 15:06:00,
2013-06-20 09:11:00,86.0,29.4,24.44,East,90,1.1,1.1,13,0.00,CLR,,0.00,WeatherDisplay:10.37,2013-06-20 15:11:00,
2013-06-20 09:16:00,87.1,30.3,24.44,East,90,4.6,4.6,13,0.00,CLR,,0.00,WeatherDisplay:10.37,2013-06-20 15:16:00,
2013-06-20 09:21:00,84.9,30.4,24.44,SSW,202,3.5,6.0,14,0.00,CLR,,0.00,WeatherDisplay:10.37,2013-06-20 15:21:00,
2013-06-20 09:26:00,82.8,30.4,24.44,SE,135,6.9,6.9,15,0.00,CLR,,0.00,WeatherDisplay:10.37,2013-06-20 15:26:00,
2013-06-20 09:31:00,81.9,26.2,24.44,SW,225,6.9,6.9,13,0.00,CLR,,0.00,WeatherDisplay:10.37,2013-06-20 15:31:00,
2013-06-20 09:37:00,82.8,32.0,24.44,SE,135,6.9,6.9,16,0.00,CLR,,0.00,WeatherDisplay:10.37,2013-06-20 15:37:00,
2013-06-20 09:42:00,82.8,30.4,24.44,SE,135,4.6,4.6,15,0.00,CLR,,0.00,WeatherDisplay:10.37,2013-06-20 15:42:00,
2013-06-20 09:47:00,84.0,31.4,24.44,SE,135,5.8,5.8,15,0.00,CLR,,0.00,WeatherDisplay:10.37,2013-06-20 15:47:00,
2013-06-20 09:52:00,83.3,30.8,24.44,East,90,8.1,8.1,15,0.00,CLR,,0.00,WeatherDisplay:10.37,2013-06-20 15:52:00,
2013-06-20 09:57:00,82.9,32.1,24.44,SE,135,8.1,8.1,16,0.00,CLR,,0.00,WeatherDisplay:10.37,2013-06-20 15:57:00,
2013-06-20 10:02:00,83.1,32.3,24.44,East,90,4.6,4.6,16,0.00,CLR,,0.00,WeatherDisplay:10.37,2013-06-20 16:02:00,
2013-06-20 10:07:00,82.8,30.4,24.44,East,90,4.6,5.4,15,0.00,CLR,,0.00,WeatherDisplay:10.37,2013-06-20 16:07:00,
2013-06-20 10:13:00,82.8,30.4,24.44,East,90,6.9,6.9,15,0.00,CLR,,0.00,WeatherDisplay:10.37,2013-06-20 16:13:00,
2013-06-20 10:18:00,82.9,30.5,24.44,East,90,8.1,8.1,15,0.00,CLR,,0.00,WeatherDisplay:10.37,2013-06-20 16:18:00,
2013-06-20 10:23:00,83.7,31.1,24.44,East,90,9.2,9.2,15,0.00,CLR,,0.00,WeatherDisplay:10.37,2013-06-20 16:23:00,
2013-06-20 10:28:00,83.5,30.9,24.44,East,90,6.9,6.9,15,0.00,CLR,,0.00,WeatherDisplay:10.37,2013-06-20 16:28:00,
2013-06-20 10:33:00,83.7,31.1,24.44,SE,135,8.1,8.1,15,0.00,CLR,,0.00,WeatherDisplay:10.37,2013-06-20 16:33:00,
2013-06-20 10:38:00,84.4,30.0,24.44,East,90,8.1,8.1,14,0.00,CLR,,0.00,WeatherDisplay:10.37,2013-06-20 16:38:00,
2013-06-20 10:43:00,84.4,30.0,24.44,East,90,10.4,10.4,14,0.00,CLR,,0.00,WeatherDisplay:10.37,2013-06-20 16:43:00,
2013-06-20 10:49:00,85.3,30.7,24.43,South,180,5.8,5.8,14,0.00,CLR,,0.00,WeatherDisplay:10.37,2013-06-20 16:49:00,
2013-06-20 10:54:00,85.6,31.0,24.43,SW,225,9.2,9.2,14,0.00,CLR,,0.00,WeatherDisplay:10.37,2013-06-20 16:54:00,
2013-06-20 10:59:00,86.0,29.4,24.44,SE,135,5.8,5.8,13,0.00,CLR,,0.00,WeatherDisplay:10.37,2013-06-20 16:59:00,
2013-06-20 11:04:00,87.1,30.3,24.43,East,90,6.9,6.9,13,0.00,CLR,,0.00,WeatherDisplay:10.37,2013-06-20 17:04:00,
2013-06-20 11:09:00,86.0,29.4,24.43,SE,135,9.2,9.2,13,0.00,CLR,,0.00,WeatherDisplay:10.37,2013-06-20 17:09:00,
2013-06-20 11:14:00,86.7,30.0,24.43,SE,135,5.8,5.8,13,0.00,CLR,,0.00,WeatherDisplay:10.37,2013-06-20 17:14:00,
2013-06-20 11:19:00,87.8,28.9,24.43,North,0,5.8,5.8,12,0.00,CLR,,0.00,WeatherDisplay:10.37,2013-06-20 17:19:00,
2013-06-20 11:25:00,88.2,29.1,24.43,SE,135,5.8,5.8,12,0.00,CLR,,0.00,WeatherDisplay:10.37,2013-06-20 17:25:00,
2013-06-20 11:30:00,87.8,28.9,24.43,NW,315,9.2,9.2,12,0.00,CLR,,0.00,WeatherDisplay:10.37,2013-06-20 17:30:00,
2013-06-20 11:35:00,89.1,29.8,24.43,SW,225,9.2,9.2,12,0.00,CLR,,0.00,WeatherDisplay:10.37,2013-06-20 17:35:00,
2013-06-20 11:40:00,89.2,30.0,24.43,SW,225,5.8,5.8,12,0.00,CLR,,0.00,WeatherDisplay:10.37,2013-06-20 17:40:00,
2013-06-20 11:45:00,88.7,29.6,24.43,South,180,6.9,6.9,12,0.00,CLR,,0.00,WeatherDisplay:10.37,2013-06-20 17:45:00,
2013-06-20 11:50:00,89.2,30.0,24.43,South,180,17.3,17.3,12,0.00,CLR,,0.00,WeatherDisplay:10.37,2013-06-20 17:50:00,
2013-06-20 11:55:00,88.2,29.1,24.43,SW,225,12.7,12.7,12,0.00,CLR,,0.00,WeatherDisplay:10.37,2013-06-20 17:55:00,
2013-06-20 12:01:00,88.2,29.1,24.43,SW,225,15.0,15.0,12,0.00,CLR,,0.00,WeatherDisplay:10.37,2013-06-20 18:01:00,
2013-06-20 12:06:00,88.2,29.1,24.42,SW,225,13.8,13.8,12,0.00,CLR,,0.00,WeatherDisplay:10.37,2013-06-20 18:06:00,
2013-06-20 12:11:00,87.6,30.7,24.42,SE,135,12.7,12.7,13,0.00,CLR,,0.00,WeatherDisplay:10.37,2013-06-20 18:11:00,
2013-06-20 12:16:00,89.6,28.1,24.42,SE,135,9.2,9.2,11,0.00,CLR,,0.00,WeatherDisplay:10.37,2013-06-20 18:16:00,
2013-06-20 12:21:00,89.2,30.0,24.42,NW,315,17.3,17.3,12,0.00,CLR,,0.00,WeatherDisplay:10.37,2013-06-20 18:21:00,
2013-06-20 12:27:00,89.1,29.8,24.41,East,90,12.7,12.7,12,0.00,CLR,,0.00,WeatherDisplay:10.37,2013-06-20 18:27:00,
2013-06-20 12:32:00,90.5,28.8,24.41,SE,135,20.7,20.7,11,0.00,CLR,,0.00,WeatherDisplay:10.37,2013-06-20 18:32:00,
2013-06-20 12:37:00,90.7,28.9,24.41,SW,225,15.0,15.0,11,0.00,CLR,,0.00,WeatherDisplay:10.37,2013-06-20 18:37:00,
2013-06-20 12:42:00,89.2,30.0,24.41,NW,315,13.8,13.8,12,0.00,CLR,,0.00,WeatherDisplay:10.37,2013-06-20 18:42:00,
2013-06-20 12:47:00,89.2,30.0,24.41,West,270,15.0,15.0,12,0.00,CLR,,0.00,WeatherDisplay:10.37,2013-06-20 18:47:00,
2013-06-20 12:52:00,89.2,30.0,24.41,South,180,15.0,15.0,12,0.00,CLR,,0.00,WeatherDisplay:10.37,2013-06-20 18:52:00,
2013-06-20 12:58:00,91.6,37.4,24.41,North,0,8.1,8.3,15,0.00,CLR,,0.00,WeatherDisplay:10.37,2013-06-20 18:58:00,
2013-06-20 13:03:00,91.8,37.5,24.40,NW,315,5.8,6.0,15,0.00,CLR,,0.00,WeatherDisplay:10.37,2013-06-20 19:03:00,
2013-06-20 13:08:00,90.7,28.9,24.40,South,180,36.8,36.8,11,0.06,RA,,0.06,WeatherDisplay:10.37,2013-06-20 19:08:00,
2013-06-20 13:13:00,91.9,37.7,24.40,SE,135,10.4,10.4,15,0.06,RA,,0.06,WeatherDisplay:10.37,2013-06-20 19:13:00,
2013-06-20 13:18:00,91.0,29.2,24.40,NW,315,5.8,5.8,11,0.06,,,0.06,WeatherDisplay:10.37,2013-06-20 19:18:00,
2013-06-20 13:23:00,91.4,37.2,24.40,SW,225,6.9,6.9,15,0.06,CLR,,0.06,WeatherDisplay:10.37,2013-06-20 19:23:00,
2013-06-20 13:28:00,90.9,29.1,24.40,East,90,16.1,16.1,11,0.06,CLR,,0.06,WeatherDisplay:10.37,2013-06-20 19:28:00,
2013-06-20 13:33:00,91.2,29.4,24.39,South,180,10.4,10.4,11,0.06,CLR,,0.06,WeatherDisplay:10.37,2013-06-20 19:33:00,
2013-06-20 13:38:00,92.8,38.4,24.39,SW,225,4.6,4.6,15,0.06,CLR,,0.06,WeatherDisplay:10.37,2013-06-20 19:38:00,
2013-06-20 13:44:00,93.7,37.3,24.39,East,90,6.9,6.9,14,0.06,CLR,,0.06,WeatherDisplay:10.37,2013-06-20 19:44:00,
2013-06-20 13:49:00,93.0,38.5,24.39,South,180,11.5,11.5,15,0.06,CLR,,0.06,WeatherDisplay:10.37,2013-06-20 19:49:00,
2013-06-20 13:54:00,92.1,37.8,24.38,South,180,16.1,16.1,15,0.06,CLR,,0.06,WeatherDisplay:10.37,2013-06-20 19:54:00,
2013-06-20 13:59:00,92.1,37.8,24.38,SW,225,15.0,15.0,15,0.06,CLR,,0.06,WeatherDisplay:10.37,2013-06-20 19:59:00,
2013-06-20 14:04:00,92.1,37.8,24.38,SW,225,8.3,8.3,15,0.06,CLR,,0.06,WeatherDisplay:10.37,2013-06-20 20:04:00,
2013-06-20 14:09:00,94.8,38.2,24.38,South,180,10.4,10.4,14,0.00,CLR,,0.06,WeatherDisplay:10.37,2013-06-20 20:09:00,
2013-06-20 14:14:00,95.0,36.4,24.37,North,0,6.9,6.9,13,0.00,CLR,,0.06,WeatherDisplay:10.37,2013-06-20 20:14:00,
2013-06-20 14:20:00,95.2,36.6,24.38,South,180,10.4,10.4,13,0.00,CLR,,0.06,WeatherDisplay:10.37,2013-06-20 20:20:00,
2013-06-20 14:25:00,93.0,38.5,24.37,West,270,15.0,15.0,15,0.00,CLR,,0.06,WeatherDisplay:10.37,2013-06-20 20:25:00,
2013-06-20 14:30:00,92.8,38.4,24.37,SE,135,5.8,5.8,15,0.00,CLR,,0.06,WeatherDisplay:10.37,2013-06-20 20:30:00,
2013-06-20 14:35:00,94.5,37.9,24.36,ESE,112,10.4,10.4,14,0.00,CLR,,0.06,WeatherDisplay:10.37,2013-06-20 20:35:00,
2013-06-20 14:40:00,94.8,38.2,24.37,SW,225,23.0,23.0,14,0.00,CLR,,0.06,WeatherDisplay:10.37,2013-06-20 20:40:00,
2013-06-20 14:45:00,94.3,37.8,24.36,SW,225,15.0,15.0,14,0.00,CLR,,0.06,WeatherDisplay:10.37,2013-06-20 20:45:00,
2013-06-20 14:50:00,93.4,37.1,24.36,SW,225,17.3,17.3,14,0.00,CLR,,0.06,WeatherDisplay:10.37,2013-06-20 20:50:00,
2013-06-20 14:55:00,93.0,38.5,24.36,SW,225,19.6,19.6,15,0.00,CLR,,0.06,WeatherDisplay:10.37,2013-06-20 20:55:00,
2013-06-20 15:00:00,92.7,38.2,24.36,South,180,23.0,23.0,15,0.00,CLR,,0.06,WeatherDisplay:10.37,2013-06-20 21:00:00,
2013-06-20 15:06:00,93.6,37.2,24.36,SW,225,11.5,11.5,14,0.00,CLR,,0.06,WeatherDisplay:10.37,2013-06-20 21:06:00,
2013-06-20 15:11:00,95.7,37.0,24.35,NW,315,8.1,8.1,13,0.00,CLR,,0.06,WeatherDisplay:10.37,2013-06-20 21:11:00,
2013-06-20 15:16:00,94.6,38.0,24.35,West,270,12.7,12.7,14,0.00,CLR,,0.06,WeatherDisplay:10.37,2013-06-20 21:16:00,
2013-06-20 15:21:00,95.0,36.4,24.35,SW,225,19.6,19.6,13,0.00,CLR,,0.06,WeatherDisplay:10.37,2013-06-20 21:21:00,
2013-06-20 15:27:00,94.5,37.9,24.35,WNW,292,16.1,16.1,14,0.00,CLR,,0.06,WeatherDisplay:10.37,2013-06-20 21:27:00,
2013-06-20 15:32:00,94.6,38.0,24.34,West,270,17.3,17.3,14,0.00,CLR,,0.06,WeatherDisplay:10.37,2013-06-20 21:32:00,
2013-06-20 15:37:00,95.4,36.7,24.34,SW,225,12.7,12.7,13,0.00,CLR,,0.06,WeatherDisplay:10.37,2013-06-20 21:37:00,
2013-06-20 15:42:00,96.6,37.7,24.34,SW,225,23.0,23.0,13,0.00,CLR,,0.06,WeatherDisplay:10.37,2013-06-20 21:42:00,
2013-06-20 15:48:00,95.2,36.6,24.34,NNW,338,21.9,21.9,13,0.00,CLR,,0.06,WeatherDisplay:10.37,2013-06-20 21:48:00,
2013-06-20 15:53:00,94.3,37.8,24.33,West,270,17.3,17.3,14,0.00,CLR,,0.06,WeatherDisplay:10.37,2013-06-20 21:53:00,
2013-06-20 15:58:00,94.6,38.0,24.33,WSW,248,15.0,15.0,14,0.00,CLR,,0.06,WeatherDisplay:10.37,2013-06-20 21:58:00,
2013-06-20 16:03:00,94.5,37.9,24.33,NW,315,8.1,8.1,14,0.00,CLR,,0.06,WeatherDisplay:10.37,2013-06-20 22:03:00,
2013-06-20 16:08:00,97.0,36.0,24.33,SE,135,12.7,12.7,12,0.00,CLR,,0.06,WeatherDisplay:10.37,2013-06-20 22:08:00,
2013-06-20 16:13:00,97.0,36.0,24.33,SW,225,12.7,12.7,12,0.00,CLR,,0.06,WeatherDisplay:10.37,2013-06-20 22:13:00,
2013-06-20 16:18:00,96.1,37.3,24.33,SW,225,17.3,17.3,13,0.00,CLR,,0.06,WeatherDisplay:10.37,2013-06-20 22:18:00,
2013-06-20 16:24:00,96.4,37.6,24.32,SW,225,10.4,10.4,13,0.00,CLR,,0.06,WeatherDisplay:10.37,2013-06-20 22:24:00,
2013-06-20 16:29:00,97.5,36.4,24.32,South,180,13.0,13.0,12,0.00,CLR,,0.06,WeatherDisplay:10.37,2013-06-20 22:29:00,
2013-06-20 16:34:00,97.7,36.5,24.32,SW,225,13.8,13.8,12,0.00,CLR,,0.06,WeatherDisplay:10.37,2013-06-20 22:34:00,
2013-06-20 16:39:00,98.2,36.9,24.31,West,270,10.4,10.4,12,0.00,CLR,,0.06,WeatherDisplay:10.37,2013-06-20 22:39:00,
2013-06-20 16:44:00,97.0,36.0,24.31,West,270,8.1,8.1,12,0.00,CLR,,0.06,WeatherDisplay:10.37,2013-06-20 22:44:00,
2013-06-20 16:49:00,97.5,36.4,24.31,South,180,5.8,9.2,12,0.00,CLR,,0.06,WeatherDisplay:10.37,2013-06-20 22:49:00,
2013-06-20 16:55:00,97.3,36.2,24.31,East,90,12.7,12.7,12,0.00,CLR,,0.06,WeatherDisplay:10.37,2013-06-20 22:55:00,
2013-06-20 17:00:00,97.9,36.7,24.31,SW,225,15.0,15.0,12,0.00,CLR,,0.06,WeatherDisplay:10.37,2013-06-20 23:00:00,
2013-06-20 17:05:00,97.2,36.1,24.30,South,180,12.7,12.7,12,0.00,CLR,,0.06,WeatherDisplay:10.37,2013-06-20 23:05:00,
2013-06-20 17:10:00,96.6,37.7,24.30,SSW,202,12.7,12.7,13,0.00,CLR,,0.06,WeatherDisplay:10.37,2013-06-20 23:10:00,
2013-06-20 17:16:00,98.2,36.9,24.30,SW,225,6.9,6.9,12,0.00,CLR,,0.06,WeatherDisplay:10.37,2013-06-20 23:16:00,
2013-06-20 17:21:00,98.2,36.9,24.30,SE,135,8.1,8.1,12,0.00,CLR,,0.06,WeatherDisplay:10.37,2013-06-20 23:21:00,
2013-06-20 17:26:00,98.6,35.0,24.30,South,180,6.9,6.9,11,0.00,CLR,,0.06,WeatherDisplay:10.37,2013-06-20 23:26:00,
2013-06-20 17:31:00,98.2,36.9,24.29,South,180,11.5,11.5,12,0.00,CLR,,0.06,WeatherDisplay:10.37,2013-06-20 23:31:00,
2013-06-20 17:37:00,98.6,35.0,24.29,SE,135,8.1,8.1,11,0.00,CLR,,0.06,WeatherDisplay:10.37,2013-06-20 23:37:00,
2013-06-20 17:42:00,98.2,36.9,24.29,West,270,11.5,11.5,12,0.00,CLR,,0.06,WeatherDisplay:10.37,2013-06-20 23:42:00,
2013-06-20 17:47:00,98.6,35.0,24.29,South,180,8.1,8.1,11,0.00,CLR,,0.06,WeatherDisplay:10.37,2013-06-20 23:47:00,
2013-06-20 17:52:00,97.9,36.7,24.29,South,180,6.9,6.9,12,0.00,CLR,,0.06,WeatherDisplay:10.37,2013-06-20 23:52:00,
2013-06-20 17:57:00,97.9,36.7,24.29,SW,225,10.4,10.4,12,0.00,CLR,,0.06,WeatherDisplay:10.37,2013-06-20 23:57:00,
2013-06-20 18:02:00,97.3,36.2,24.29,West,270,12.7,12.7,12,0.00,CLR,,0.06,WeatherDisplay:10.37,2013-06-21 00:02:00,
2013-06-20 18:07:00,97.3,36.2,24.29,West,270,12.7,12.7,12,0.00,CLR,,0.06,WeatherDisplay:10.37,2013-06-21 00:07:00,
2013-06-20 18:13:00,97.0,36.0,24.29,West,270,17.3,17.3,12,0.00,CLR,,0.06,WeatherDisplay:10.37,2013-06-21 00:13:00,
2013-06-20 18:18:00,96.4,37.6,24.29,SW,225,20.7,20.7,13,0.00,CLR,,0.06,WeatherDisplay:10.37,2013-06-21 00:18:00,
2013-06-20 18:23:00,95.4,36.7,24.29,SW,225,19.6,19.6,13,0.00,CLR,,0.06,WeatherDisplay:10.37,2013-06-21 00:23:00,
2013-06-20 18:28:00,95.9,37.1,24.29,South,180,17.3,17.3,13,0.00,CLR,,0.06,WeatherDisplay:10.37,2013-06-21 00:28:00,
2013-06-20 18:33:00,95.9,37.1,24.29,SW,225,12.7,12.7,13,0.00,CLR,,0.06,WeatherDisplay:10.37,2013-06-21 00:33:00,
2013-06-20 18:38:00,95.4,36.7,24.29,NW,315,10.4,10.4,13,0.00,CLR,,0.06,WeatherDisplay:10.37,2013-06-21 00:38:00,
2013-06-20 18:44:00,95.4,36.7,24.29,SW,225,10.4,10.4,13,0.00,CLR,,0.06,WeatherDisplay:10.37,2013-06-21 00:44:00,
2013-06-20 18:49:00,95.4,36.7,24.29,SW,225,13.8,13.8,13,0.00,CLR,,0.06,WeatherDisplay:10.37,2013-06-21 00:49:00,
2013-06-20 18:54:00,95.0,36.4,24.29,NW,315,13.0,13.0,13,0.00,CLR,,0.06,WeatherDisplay:10.37,2013-06-21 00:54:00,
2013-06-20 18:59:00,94.8,38.2,24.30,SW,225,15.0,15.0,14,0.00,CLR,,0.06,WeatherDisplay:10.37,2013-06-21 00:59:00,
2013-06-20 19:05:00,94.5,37.9,24.29,West,270,11.5,11.5,14,0.00,CLR,,0.06,WeatherDisplay:10.37,2013-06-21 01:05:00,
2013-06-20 19:10:00,94.3,37.8,24.29,NE,45,15.0,15.0,14,0.00,CLR,,0.06,WeatherDisplay:10.37,2013-06-21 01:10:00,
2013-06-20 19:15:00,94.3,37.8,24.29,SW,225,12.7,12.7,14,0.00,CLR,,0.06,WeatherDisplay:10.37,2013-06-21 01:15:00,
2013-06-20 19:20:00,94.3,37.8,24.29,SW,225,12.7,12.7,14,0.00,CLR,,0.06,WeatherDisplay:10.37,2013-06-21 01:20:00,
2013-06-20 19:26:00,94.1,37.6,24.29,NW,315,10.4,10.4,14,0.00,CLR,,0.06,WeatherDisplay:10.37,2013-06-21 01:26:00,
2013-06-20 19:31:00,94.1,37.6,24.29,SW,225,9.2,9.2,14,0.00,CLR,,0.06,WeatherDisplay:10.37,2013-06-21 01:31:00,
2013-06-20 19:36:00,93.7,37.3,24.29,South,180,5.8,5.8,14,0.00,CLR,,0.06,WeatherDisplay:10.37,2013-06-21 01:36:00,
2013-06-20 19:41:00,93.4,37.1,24.29,South,180,8.1,8.1,14,0.00,CLR,,0.06,WeatherDisplay:10.37,2013-06-21 01:41:00,
2013-06-20 19:47:00,92.8,38.4,24.29,South,180,10.4,10.4,15,0.00,CLR,,0.06,WeatherDisplay:10.37,2013-06-21 01:47:00,
2013-06-20 19:52:00,92.5,38.1,24.29,SW,225,10.4,10.4,15,0.00,CLR,,0.06,WeatherDisplay:10.37,2013-06-21 01:52:00,
2013-06-20 19:57:00,91.8,37.5,24.29,SW,225,12.7,12.7,15,0.00,CLR,,0.06,WeatherDisplay:10.37,2013-06-21 01:57:00,
2013-06-20 20:02:00,91.6,37.4,24.29,SW,225,10.4,10.4,15,0.00,CLR,,0.06,WeatherDisplay:10.37,2013-06-21 02:02:00,
2013-06-20 20:08:00,90.3,28.7,24.30,West,270,10.4,10.4,11,0.00,CLR,,0.06,WeatherDisplay:10.37,2013-06-21 02:08:00,
2013-06-20 20:13:00,89.4,30.1,24.30,SW,225,8.1,8.1,12,0.00,CLR,,0.06,WeatherDisplay:10.37,2013-06-21 02:13:00,
2013-06-20 20:18:00,88.9,29.7,24.30,SW,225,5.8,5.8,12,0.00,CLR,,0.06,WeatherDisplay:10.37,2013-06-21 02:18:00,
2013-06-20 20:23:00,88.0,29.0,24.30,SW,225,5.8,5.8,12,0.00,CLR,,0.06,WeatherDisplay:10.37,2013-06-21 02:23:00,
2013-06-20 20:28:00,87.3,30.4,24.30,SW,225,5.8,5.8,13,0.00,CLR,,0.06,WeatherDisplay:10.37,2013-06-21 02:28:00,
2013-06-20 20:33:00,86.7,30.0,24.30,West,270,9.2,9.2,13,0.00,CLR,,0.06,WeatherDisplay:10.37,2013-06-21 02:33:00,
2013-06-20 20:39:00,86.5,29.8,24.30,SW,225,5.8,5.8,13,0.00,CLR,,0.06,WeatherDisplay:10.37,2013-06-21 02:39:00,
2013-06-20 20:44:00,86.2,29.6,24.30,SW,225,5.8,5.8,13,0.00,CLR,,0.06,WeatherDisplay:10.37,2013-06-21 02:44:00,
2013-06-20 20:49:00,85.6,31.0,24.31,SW,225,5.8,5.8,14,0.00,CLR,,0.06,WeatherDisplay:10.37,2013-06-21 02:49:00,
2013-06-20 20:54:00,84.7,30.2,24.31,West,270,5.8,5.8,14,0.00,CLR,,0.06,WeatherDisplay:10.37,2013-06-21 02:54:00,
2013-06-20 21:00:00,83.8,31.2,24.31,West,270,5.8,5.8,15,0.00,CLR,,0.06,WeatherDisplay:10.37,2013-06-21 03:00:00,
2013-06-20 21:05:00,83.1,30.7,24.32,SW,225,5.8,5.8,15,0.00,CLR,,0.06,WeatherDisplay:10.37,2013-06-21 03:05:00,
2013-06-20 21:10:00,82.0,22.3,24.32,West,270,9.2,9.2,11,0.00,CLR,,0.06,WeatherDisplay:10.37,2013-06-21 03:10:00,
2013-06-20 21:15:00,80.8,21.3,24.32,West,270,6.9,6.9,11,0.00,CLR,,0.06,WeatherDisplay:10.37,2013-06-21 03:15:00,
2013-06-20 21:20:00,79.5,22.4,24.32,NW,315,8.1,8.1,12,0.00,CLR,,0.06,WeatherDisplay:10.37,2013-06-21 03:20:00,
2013-06-20 21:26:00,79.2,22.1,24.32,NW,315,5.8,5.8,12,0.00,CLR,,0.06,WeatherDisplay:10.37,2013-06-21 03:26:00,
2013-06-20 21:31:00,79.2,22.1,24.33,West,270,9.2,9.2,12,0.00,CLR,,0.06,WeatherDisplay:10.37,2013-06-21 03:31:00,
2013-06-20 21:36:00,79.2,22.1,24.32,NW,315,8.1,8.1,12,0.00,CLR,,0.06,WeatherDisplay:10.37,2013-06-21 03:36:00,
2013-06-20 21:41:00,78.8,21.9,24.33,West,270,8.1,8.1,12,0.00,CLR,,0.06,WeatherDisplay:10.37,2013-06-21 03:41:00,
2013-06-20 21:47:00,78.3,23.3,24.34,NW,315,8.3,8.3,13,0.00,CLR,,0.06,WeatherDisplay:10.37,2013-06-21 03:47:00,
2013-06-20 21:52:00,78.1,23.2,24.34,West,270,8.1,8.1,13,0.00,CLR,,0.06,WeatherDisplay:10.37,2013-06-21 03:52:00,
2013-06-20 21:57:00,77.9,23.1,24.34,NW,315,6.9,6.9,13,0.00,CLR,,0.06,WeatherDisplay:10.37,2013-06-21 03:57:00,
2013-06-20 22:01:00,77.7,22.9,24.34,West,270,5.8,5.8,13,0.00,CLR,,0.06,WeatherDisplay:10.37,2013-06-21 04:01:00,
2013-06-20 22:02:00,77.7,22.9,24.34,West,270,5.8,5.8,13,0.00,CLR,,0.06,WeatherDisplay:10.37,2013-06-21 04:02:00,
2013-06-20 22:07:00,77.7,22.9,24.35,West,270,5.8,5.8,13,0.00,CLR,,0.06,WeatherDisplay:10.37,2013-06-21 04:07:00,
2013-06-20 22:12:00,75.9,23.3,24.35,West,270,5.8,5.8,14,0.00,CLR,,0.06,WeatherDisplay:10.37,2013-06-21 04:12:00,
2013-06-20 22:18:00,75.4,22.8,24.35,NW,315,6.0,6.0,14,0.00,CLR,,0.06,WeatherDisplay:10.37,2013-06-21 04:18:00,
2013-06-20 22:25:00,75.2,22.7,24.50,North,0,5.8,0.0,14,0.00,CLR,,0.06,WeatherDisplay:10.37,2013-06-21 04:25:00,
2013-06-20 22:30:00,74.8,24.1,24.35,West,270,5.8,5.8,15,0.00,CLR,,0.06,WeatherDisplay:10.37,2013-06-21 04:30:00,
2013-06-20 22:36:00,74.5,23.8,24.36,NW,315,4.6,4.6,15,0.00,CLR,,0.06,WeatherDisplay:10.37,2013-06-21 04:36:00,
2013-06-20 22:41:00,74.3,23.6,24.36,NW,315,4.6,4.6,15,0.00,CLR,,0.06,WeatherDisplay:10.37,2013-06-21 04:41:00,
2013-06-20 22:46:00,74.1,23.5,24.36,NW,315,4.6,4.6,15,0.00,CLR,,0.06,WeatherDisplay:10.37,2013-06-21 04:46:00,
2013-06-20 22:51:00,73.9,23.3,24.36,NW,315,3.5,3.5,15,0.00,CLR,,0.06,WeatherDisplay:10.37,2013-06-21 04:51:00,
2013-06-20 22:56:00,73.0,17.4,24.37,NW,315,2.3,2.3,12,0.00,CLR,,0.06,WeatherDisplay:10.37,2013-06-21 04:56:00,
2013-06-20 23:01:00,72.3,16.8,24.37,East,90,1.1,0.0,12,0.00,CLR,,0.06,WeatherDisplay:10.37,2013-06-21 05:01:00,
2013-06-20 23:06:00,72.0,16.5,24.37,East,90,1.6,1.6,12,0.00,CLR,,0.06,WeatherDisplay:10.37,2013-06-21 05:06:00,
2013-06-20 23:11:00,71.6,16.2,24.38,East,90,1.1,0.0,12,0.00,CLR,,0.06,WeatherDisplay:10.37,2013-06-21 05:11:00,
2013-06-20 23:16:00,71.2,17.8,24.38,NW,315,2.3,0.0,13,0.00,CLR,,0.06,WeatherDisplay:10.37,2013-06-21 05:16:00,
2013-06-20 23:21:00,70.7,17.4,24.38,North,0,3.5,3.5,13,0.00,CLR,,0.06,WeatherDisplay:10.37,2013-06-21 05:21:00,
2013-06-20 23:27:00,71.1,17.7,24.38,North,0,2.3,2.3,13,0.00,CLR,,0.06,WeatherDisplay:10.37,2013-06-21 05:27:00,
2013-06-20 23:32:00,71.8,16.4,24.38,North,0,4.6,4.6,12,0.00,CLR,,0.06,WeatherDisplay:10.37,2013-06-21 05:32:00,
2013-06-20 23:37:00,72.3,16.8,24.38,North,0,3.5,3.5,12,0.00,CLR,,0.06,WeatherDisplay:10.37,2013-06-21 05:37:00,
2013-06-20 23:42:00,72.0,16.5,24.38,North,0,1.1,1.1,12,0.00,CLR,,0.06,WeatherDisplay:10.37,2013-06-21 05:42:00,
2013-06-20 23:47:00,71.6,16.2,24.39,NW,315,3.5,3.5,12,0.00,CLR,,0.06,WeatherDisplay:10.37,2013-06-21 05:47:00,
2013-06-20 23:52:00,71.8,16.4,24.39,NW,315,3.5,3.5,12,0.00,CLR,,0.06,WeatherDisplay:10.37,2013-06-21 05:52:00,
2013-06-20 23:57:00,72.1,16.7,24.39,NW,315,3.5,3.5,12,0.00,CLR,,0.06,WeatherDisplay:10.37,2013-06-21 05:57:00,